createdAt,value
2019-01-17T00:02:45.573Z,23.12
2019-01-17T00:05:34.025Z,24.30
2019-01-17T00:08:20.888Z,18.23
2019-01-17T00:10:58.927Z,15.35
2019-01-17T00:13:41.034Z,18.57
2019-01-17T00:16:30.905Z,15.93
2019-01-17T00:19:17.794Z,18.35
2019-01-17T00:22:01.647Z,13.03
2019-01-17T00:24:50.238Z,20.08
2019-01-17T00:27:35.787Z,23.92
2019-01-17T00:30:43.826Z,11.78
2019-01-17T00:33:35.477Z,20.12
2019-01-17T00:36:22.696Z,18.05
2019-01-17T00:39:12.552Z,17.73
2019-01-17T00:41:59.355Z,21.00
2019-01-17T00:44:46.567Z,19.82
2019-01-17T00:47:41.482Z,22.80
2019-01-17T00:50:30.958Z,17.00
2019-01-17T00:53:11.963Z,17.75
2019-01-17T00:55:57.921Z,23.27
2019-01-17T00:58:48.640Z,15.70
2019-01-17T01:01:43.314Z,14.78
2019-01-17T01:04:36.969Z,14.13
2019-01-17T01:07:18.133Z,17.48
2019-01-17T01:10:18.419Z,17.55
2019-01-17T01:13:18.928Z,11.50
2019-01-17T01:16:13.673Z,14.53
2019-01-17T01:19:13.986Z,13.80
2019-01-17T01:22:02.017Z,12.20
2019-01-17T01:24:56.613Z,19.45
2019-01-17T01:27:43.860Z,13.45
2019-01-17T01:30:32.357Z,16.20
2019-01-17T01:33:32.717Z,14.13
2019-01-17T01:36:33.215Z,10.20
2019-01-17T01:39:15.937Z,18.98
2019-01-17T01:42:07.343Z,16.02
2019-01-17T01:44:58.615Z,8.95
2019-01-17T01:47:50.089Z,11.83
2019-01-17T01:50:50.695Z,7.40
2019-01-17T01:53:20.768Z,8.58
2019-01-17T01:55:50.577Z,10.60
2019-01-17T01:58:20.870Z,13.05
2019-01-17T02:00:50.592Z,8.03
2019-01-17T02:03:21.223Z,8.80
2019-01-17T02:05:51.182Z,8.68
2019-01-17T02:08:20.869Z,9.10
2019-01-17T02:10:50.483Z,9.10
2019-01-17T02:13:20.674Z,7.22
2019-01-17T02:15:51.914Z,6.62
2019-01-17T02:18:21.678Z,5.97
2019-01-17T02:20:51.966Z,7.42
2019-01-17T02:23:21.846Z,6.37
2019-01-17T02:25:51.438Z,9.80
2019-01-17T02:28:21.423Z,5.65
2019-01-17T02:30:51.313Z,2.42
2019-01-17T02:33:21.227Z,4.05
2019-01-17T02:35:51.035Z,3.87
2019-01-17T02:38:21.116Z,3.40
2019-01-17T02:40:51.117Z,6.60
2019-01-17T02:43:21.062Z,5.60
2019-01-17T02:45:50.855Z,3.85
2019-01-17T02:48:20.774Z,3.80
2019-01-17T02:50:50.703Z,4.78
2019-01-17T02:53:21.711Z,4.85
2019-01-17T02:55:51.930Z,3.90
2019-01-17T02:58:21.892Z,5.00
2019-01-17T03:00:51.661Z,4.37
2019-01-17T03:03:22.194Z,5.12
2019-01-17T03:05:52.412Z,4.62
2019-01-17T03:08:22.336Z,10.43
2019-01-17T03:10:52.411Z,7.28
2019-01-17T03:13:22.563Z,10.43
2019-01-17T03:15:52.537Z,9.95
2019-01-17T03:18:22.672Z,7.70
2019-01-17T03:20:52.738Z,7.25
2019-01-17T03:23:22.708Z,6.53
2019-01-17T03:25:52.959Z,9.43
2019-01-17T03:28:22.844Z,9.50
2019-01-17T03:30:52.627Z,5.28
2019-01-17T03:33:23.646Z,7.78
2019-01-17T03:35:55.157Z,5.67
2019-01-17T03:38:27.419Z,5.97
2019-01-17T03:40:56.976Z,4.10
2019-01-17T03:43:26.488Z,6.22
2019-01-17T03:45:56.123Z,7.30
2019-01-17T03:48:25.874Z,6.47
2019-01-17T03:50:57.200Z,6.78
2019-01-17T03:53:27.618Z,6.03
2019-01-17T03:55:57.383Z,5.08
2019-01-17T03:58:27.374Z,4.80
2019-01-17T04:00:57.068Z,6.37
2019-01-17T04:03:26.866Z,5.78
2019-01-17T04:05:56.542Z,4.03
2019-01-17T04:08:29.866Z,3.75
2019-01-17T04:10:59.725Z,4.47
2019-01-17T04:13:29.881Z,3.90
2019-01-17T04:15:59.984Z,7.17
2019-01-17T04:18:30.182Z,4.47
2019-01-17T04:21:00.065Z,7.30
2019-01-17T04:23:29.717Z,6.10
2019-01-17T04:25:59.383Z,6.30
2019-01-17T04:28:29.300Z,6.53
2019-01-17T04:31:00.786Z,5.30
2019-01-17T04:33:31.556Z,6.50
2019-01-17T04:36:01.439Z,5.37
2019-01-17T04:38:31.153Z,4.87
2019-01-17T04:41:01.950Z,10.75
2019-01-17T04:43:31.607Z,6.90
2019-01-17T04:46:01.300Z,5.85
2019-01-17T04:48:31.020Z,6.97
2019-01-17T04:51:00.879Z,7.87
2019-01-17T04:53:30.632Z,7.72
2019-01-17T04:56:00.346Z,9.95
2019-01-17T04:58:30.018Z,6.37
2019-01-17T05:00:59.736Z,13.38
2019-01-17T05:03:29.568Z,7.97
2019-01-17T05:05:59.273Z,6.72
2019-01-17T05:08:28.859Z,7.75
2019-01-17T05:10:58.670Z,7.20
2019-01-17T05:13:28.344Z,9.45
2019-01-17T05:15:58.061Z,11.00
2019-01-17T05:18:27.724Z,8.00
2019-01-17T05:20:57.787Z,10.40
2019-01-17T05:23:27.422Z,10.53
2019-01-17T05:25:57.004Z,8.63
2019-01-17T05:28:26.801Z,9.75
2019-01-17T05:30:56.531Z,9.23
2019-01-17T05:33:26.140Z,10.85
2019-01-17T05:35:55.878Z,8.93
2019-01-17T05:38:25.379Z,10.82
2019-01-17T05:40:55.025Z,10.30
2019-01-17T05:43:24.512Z,10.15
2019-01-17T05:45:54.207Z,15.20
2019-01-17T05:48:24.495Z,16.25
2019-01-17T05:50:54.188Z,11.05
2019-01-17T05:53:24.140Z,9.45
2019-01-17T05:55:53.747Z,11.93
2019-01-17T05:58:23.267Z,11.08
2019-01-17T06:00:52.899Z,13.03
2019-01-17T06:03:22.549Z,10.13
2019-01-17T06:05:54.855Z,14.53
2019-01-17T06:08:24.510Z,13.98
2019-01-17T06:10:54.205Z,15.28
2019-01-17T06:13:25.397Z,12.55
2019-01-17T06:15:57.931Z,20.30
2019-01-17T06:18:27.971Z,20.57
2019-01-17T06:20:57.952Z,12.88
2019-01-17T06:23:29.117Z,15.43
2019-01-17T06:25:59.216Z,12.82
2019-01-17T06:28:29.028Z,14.40
2019-01-17T06:30:58.832Z,14.10
2019-01-17T06:33:28.783Z,15.38
2019-01-17T06:35:59.375Z,13.03
2019-01-17T06:38:28.910Z,16.25
2019-01-17T06:41:00.446Z,15.95
2019-01-17T06:43:30.903Z,23.83
2019-01-17T06:46:01.122Z,21.23
2019-01-17T06:48:31.146Z,17.23
2019-01-17T06:51:01.469Z,18.52
2019-01-17T06:53:31.089Z,15.90
2019-01-17T06:56:01.912Z,17.37
2019-01-17T06:58:31.820Z,13.83
2019-01-17T07:01:02.966Z,20.43
2019-01-17T07:03:32.941Z,15.80
2019-01-17T07:06:04.943Z,18.20
2019-01-17T07:08:35.225Z,24.85
2019-01-17T07:11:05.245Z,25.60
2019-01-17T07:13:35.571Z,20.90
2019-01-17T07:16:06.031Z,21.17
2019-01-17T07:18:35.648Z,25.17
2019-01-17T07:21:05.395Z,18.00
2019-01-17T07:23:35.785Z,22.20
2019-01-17T07:26:05.540Z,29.72
2019-01-17T07:28:35.087Z,21.30
2019-01-17T07:31:07.343Z,16.35
2019-01-17T07:33:37.927Z,17.73
2019-01-17T07:36:07.533Z,17.65
2019-01-17T07:38:37.495Z,21.20
2019-01-17T07:41:07.675Z,24.15
2019-01-17T07:43:40.788Z,23.77
2019-01-17T07:46:10.340Z,20.40
2019-01-17T07:48:39.845Z,23.98
2019-01-17T07:51:09.567Z,17.67
2019-01-17T07:53:39.234Z,21.35
2019-01-17T07:56:08.779Z,20.08
2019-01-17T07:58:38.421Z,23.47
2019-01-17T08:01:07.909Z,21.33
2019-01-17T08:03:37.532Z,23.50
2019-01-17T08:06:07.244Z,19.55
2019-01-17T08:08:36.728Z,24.43
2019-01-17T08:11:06.366Z,19.98
2019-01-17T08:13:35.953Z,23.00
2019-01-17T08:16:05.401Z,22.67
2019-01-17T08:18:34.925Z,23.32
2019-01-17T08:21:04.842Z,23.45
2019-01-17T08:23:34.846Z,24.07
2019-01-17T08:26:04.461Z,22.80
2019-01-17T08:28:33.963Z,24.77
2019-01-17T08:31:03.519Z,18.55
2019-01-17T08:33:33.050Z,23.38
2019-01-17T08:36:02.646Z,33.48
2019-01-17T08:38:32.084Z,24.27
2019-01-17T08:41:01.602Z,22.10
2019-01-17T08:43:31.122Z,20.72
2019-01-17T08:46:00.713Z,31.27
2019-01-17T08:48:30.218Z,23.75
2019-01-17T08:50:59.687Z,25.05
2019-01-17T08:53:29.304Z,23.77
2019-01-17T08:56:00.862Z,27.93
2019-01-17T08:58:30.147Z,24.32
2019-01-17T09:00:59.673Z,27.30
2019-01-17T09:03:29.191Z,24.85
2019-01-17T09:05:58.731Z,24.85
2019-01-17T09:08:28.252Z,23.30
2019-01-17T09:10:57.724Z,27.87
2019-01-17T09:13:27.219Z,28.57
2019-01-17T09:15:56.739Z,24.77
2019-01-17T09:18:26.170Z,21.35
2019-01-17T09:20:55.761Z,30.27
2019-01-17T09:23:25.204Z,25.35
2019-01-17T09:25:54.692Z,22.70
2019-01-17T09:28:24.232Z,28.00
2019-01-17T09:30:53.758Z,18.77
2019-01-17T09:33:23.263Z,24.77
2019-01-17T09:35:52.816Z,22.65
2019-01-17T09:38:22.320Z,24.10
2019-01-17T09:40:51.793Z,26.10
2019-01-17T09:43:21.257Z,19.65
2019-01-17T09:45:50.755Z,20.80
2019-01-17T09:48:20.281Z,18.45
2019-01-17T09:50:49.774Z,25.60
2019-01-17T09:53:19.237Z,19.37
2019-01-17T09:55:49.129Z,17.42
2019-01-17T09:58:18.752Z,19.00
2019-01-17T10:00:48.350Z,21.45
2019-01-17T10:03:17.876Z,17.10
2019-01-17T10:05:47.576Z,16.00
2019-01-17T10:08:17.072Z,20.97
2019-01-17T10:10:46.556Z,14.78
2019-01-17T10:13:15.982Z,19.45
2019-01-17T10:15:58.918Z,18.80
2019-01-17T10:19:02.079Z,13.98
2019-01-17T10:22:19.298Z,11.80
2019-01-17T10:24:58.794Z,11.63
2019-01-17T10:28:09.535Z,23.77
2019-01-17T10:31:03.210Z,11.40
2019-01-17T10:34:01.215Z,19.77
2019-01-17T10:37:01.130Z,16.23
2019-01-17T10:40:13.551Z,15.80
2019-01-17T10:43:23.600Z,9.88
2019-01-17T10:46:17.743Z,10.75
2019-01-17T10:49:32.945Z,12.07
2019-01-17T10:52:46.358Z,16.45
2019-01-17T10:56:01.788Z,9.48
2019-01-17T10:58:53.415Z,5.60
2019-01-17T11:02:15.908Z,7.72
2019-01-17T11:05:00.886Z,6.42
2019-01-17T11:08:09.551Z,7.85
2019-01-17T11:11:12.027Z,8.25
2019-01-17T11:14:10.468Z,6.87
2019-01-17T11:17:19.759Z,10.18
2019-01-17T11:20:33.111Z,10.85
2019-01-17T11:23:11.341Z,13.53
2019-01-17T11:26:14.972Z,7.78
2019-01-17T11:29:33.018Z,14.78
2019-01-17T11:32:29.323Z,5.97
2019-01-17T11:35:32.404Z,10.65
2019-01-17T11:38:15.163Z,8.43
2019-01-17T11:41:32.706Z,13.10
2019-01-17T11:44:40.329Z,12.73
2019-01-17T11:47:39.692Z,8.00
2019-01-17T11:50:48.172Z,9.75
2019-01-17T11:54:07.848Z,6.33
2019-01-17T11:57:09.999Z,6.25
2019-01-17T12:00:41.232Z,7.00
2019-01-17T12:03:48.034Z,5.90
2019-01-17T12:06:17.498Z,7.85
2019-01-17T12:08:47.040Z,9.93
2019-01-17T12:11:16.585Z,9.00
2019-01-17T12:13:46.118Z,17.42
2019-01-17T12:16:15.791Z,12.55
2019-01-17T12:18:45.278Z,8.60
2019-01-17T12:21:14.750Z,5.17
2019-01-17T12:23:44.256Z,5.00
2019-01-17T12:26:13.784Z,6.10
2019-01-17T12:28:43.928Z,6.80
2019-01-17T12:31:13.488Z,11.95
2019-01-17T12:33:42.907Z,5.15
2019-01-17T12:36:12.445Z,6.45
2019-01-17T12:38:41.979Z,4.05
2019-01-17T12:41:11.552Z,3.35
2019-01-17T12:43:41.087Z,5.58
2019-01-17T12:46:11.095Z,5.20
2019-01-17T12:48:40.776Z,7.50
2019-01-17T12:51:10.219Z,9.70
2019-01-17T12:53:39.726Z,6.75
2019-01-17T12:56:09.394Z,4.60
2019-01-17T12:58:38.948Z,6.72
2019-01-17T13:01:08.557Z,7.75
2019-01-17T13:03:38.211Z,7.12
2019-01-17T13:06:07.629Z,5.17
2019-01-17T13:08:37.205Z,4.72
2019-01-17T13:11:06.744Z,10.13
2019-01-17T13:13:36.277Z,4.65
2019-01-17T13:16:05.827Z,5.80
2019-01-17T13:18:35.295Z,9.30
2019-01-17T13:21:04.866Z,7.67
2019-01-17T13:23:34.310Z,7.05
2019-01-17T13:26:05.081Z,6.75
2019-01-17T13:28:34.682Z,5.25
2019-01-17T13:31:04.559Z,6.08
2019-01-17T13:33:34.107Z,7.35
2019-01-17T13:36:03.930Z,5.10
2019-01-17T13:38:33.391Z,3.35
2019-01-17T13:41:02.905Z,5.12
2019-01-17T13:43:32.398Z,4.25
2019-01-17T13:46:01.873Z,3.30
2019-01-17T13:48:31.729Z,5.33
2019-01-17T13:51:01.285Z,6.35
2019-01-17T13:53:31.020Z,5.58
2019-01-17T13:56:00.623Z,3.42
2019-01-17T13:58:30.114Z,3.40
2019-01-17T14:00:59.835Z,4.62
2019-01-17T14:03:29.500Z,5.50
2019-01-17T14:05:59.234Z,4.30
2019-01-17T14:08:30.652Z,4.55
2019-01-17T14:11:00.294Z,4.72
2019-01-17T14:13:29.818Z,2.17
2019-01-17T14:15:59.420Z,3.35
2019-01-17T14:18:29.143Z,4.62
2019-01-17T14:20:58.847Z,2.35
2019-01-17T14:23:28.518Z,3.52
2019-01-17T14:25:58.015Z,4.00
2019-01-17T14:28:27.750Z,3.75
2019-01-17T14:30:57.671Z,3.25
2019-01-17T14:33:27.570Z,2.85
2019-01-17T14:35:57.091Z,1.70
2019-01-17T14:38:26.625Z,5.75
2019-01-17T14:40:56.260Z,2.37
2019-01-17T14:43:26.062Z,2.42
2019-01-17T14:45:55.497Z,1.55
2019-01-17T14:48:25.195Z,6.05
2019-01-17T14:50:54.767Z,6.10
2019-01-17T14:53:24.472Z,2.85
2019-01-17T14:55:54.158Z,3.75
2019-01-17T14:58:23.932Z,4.72
2019-01-17T15:00:53.386Z,5.12
2019-01-17T15:03:23.053Z,4.42
2019-01-17T15:05:52.558Z,4.90
2019-01-17T15:08:22.166Z,2.65
2019-01-17T15:10:51.714Z,4.20
2019-01-17T15:13:21.271Z,2.65
2019-01-17T15:15:50.910Z,3.30
2019-01-17T15:18:20.484Z,6.10
2019-01-17T15:20:49.969Z,11.35
2019-01-17T15:23:19.407Z,8.08
2019-01-17T15:25:48.951Z,4.42
2019-01-17T15:28:18.454Z,2.00
2019-01-17T15:30:47.963Z,1.75
2019-01-17T15:33:17.582Z,1.85
2019-01-17T15:35:47.138Z,3.50
2019-01-17T15:38:16.737Z,9.18
2019-01-17T15:40:46.423Z,3.80
2019-01-17T15:43:16.276Z,9.58
2019-01-17T15:45:46.118Z,5.53
2019-01-17T15:48:15.856Z,12.10
2019-01-17T15:50:45.583Z,7.78
2019-01-17T15:53:15.131Z,2.35
2019-01-17T15:55:44.856Z,2.50
2019-01-17T15:58:14.493Z,7.53
2019-01-17T16:00:45.349Z,1.57
2019-01-17T16:03:15.097Z,3.50
2019-01-17T16:05:44.900Z,6.92
2019-01-17T16:08:14.665Z,6.25
2019-01-17T16:10:44.250Z,3.25
2019-01-17T16:13:14.794Z,7.62
2019-01-17T16:15:44.328Z,14.50
2019-01-17T16:18:14.030Z,8.30
2019-01-17T16:20:43.502Z,16.32
2019-01-17T16:23:13.144Z,4.42
2019-01-17T16:25:42.673Z,3.62
2019-01-17T16:28:12.351Z,6.72
2019-01-17T16:30:42.810Z,8.93
2019-01-17T16:33:12.335Z,6.40
2019-01-17T16:35:41.921Z,3.58
2019-01-17T16:38:11.595Z,6.67
2019-01-17T16:40:41.153Z,6.22
2019-01-17T16:43:10.666Z,6.25
2019-01-17T16:45:40.169Z,5.58
2019-01-17T16:48:09.722Z,9.55
2019-01-17T16:50:39.241Z,10.40
2019-01-17T16:53:08.992Z,15.30
2019-01-17T16:55:40.299Z,6.45
2019-01-17T16:58:09.862Z,9.35
2019-01-17T17:00:44.395Z,8.95
2019-01-17T17:03:14.055Z,7.37
2019-01-17T17:05:43.768Z,4.80
2019-01-17T17:08:13.591Z,14.58
2019-01-17T17:10:43.111Z,7.00
2019-01-17T17:13:12.640Z,13.90
2019-01-17T17:15:42.121Z,11.53
2019-01-17T17:18:11.801Z,4.70
2019-01-17T17:20:41.391Z,20.17
2019-01-17T17:23:11.138Z,4.00
2019-01-17T17:25:40.781Z,9.30
2019-01-17T17:28:10.280Z,6.42
2019-01-17T17:30:40.500Z,10.85
2019-01-17T17:33:10.003Z,5.67
2019-01-17T17:35:39.512Z,11.80
2019-01-17T17:38:09.098Z,7.28
2019-01-17T17:40:38.563Z,6.30
2019-01-17T17:43:08.026Z,9.35
2019-01-17T17:45:38.055Z,5.60
2019-01-17T17:48:08.021Z,7.62
2019-01-17T17:50:37.802Z,7.83
2019-01-17T17:53:07.360Z,10.50
2019-01-17T17:55:36.889Z,7.35
2019-01-17T17:58:06.779Z,5.70
2019-01-17T18:00:50.740Z,6.78
2019-01-17T18:03:20.679Z,10.58
2019-01-17T18:05:50.254Z,28.83
2019-01-17T18:08:20.653Z,5.33
2019-01-17T18:10:50.270Z,11.30
2019-01-17T18:13:19.852Z,7.97
2019-01-17T18:15:49.684Z,12.28
2019-01-17T18:18:19.666Z,13.28
2019-01-17T18:20:49.248Z,3.83
2019-01-17T18:23:18.886Z,8.08
2019-01-17T18:25:48.448Z,6.95
2019-01-17T18:28:18.075Z,6.05
2019-01-17T18:30:47.723Z,9.95
2019-01-17T18:33:17.597Z,4.50
2019-01-17T18:35:47.500Z,7.03
2019-01-17T18:38:17.321Z,5.03
2019-01-17T18:40:47.033Z,4.62
2019-01-17T18:43:17.629Z,8.63
2019-01-17T18:45:47.387Z,7.47
2019-01-17T18:48:17.389Z,6.55
2019-01-17T18:50:47.305Z,3.92
2019-01-17T18:53:19.618Z,6.37
2019-01-17T18:55:49.333Z,7.35
2019-01-17T18:58:18.935Z,3.55
2019-01-17T19:00:48.715Z,10.63
2019-01-17T19:03:18.410Z,5.53
2019-01-17T19:05:48.095Z,4.28
2019-01-17T19:08:17.665Z,6.83
2019-01-17T19:10:47.460Z,4.67
2019-01-17T19:13:17.482Z,9.18
2019-01-17T19:15:47.102Z,3.27
2019-01-17T19:18:17.057Z,12.37
2019-01-17T19:20:46.708Z,5.45
2019-01-17T19:23:16.227Z,7.47
2019-01-17T19:25:45.742Z,6.25
2019-01-17T19:28:22.051Z,14.35
2019-01-17T19:30:46.668Z,5.95
2019-01-17T19:33:17.213Z,6.47
2019-01-17T19:35:46.846Z,5.10
2019-01-17T19:38:16.466Z,6.20
2019-01-17T19:40:45.950Z,6.90
2019-01-17T19:43:19.330Z,5.95
2019-01-17T19:45:49.556Z,9.55
2019-01-17T19:48:34.300Z,8.90
2019-01-17T19:50:58.255Z,2.47
2019-01-17T19:53:27.766Z,7.92
2019-01-17T19:56:00.245Z,5.05
2019-01-17T19:58:32.702Z,8.83
2019-01-17T20:01:05.434Z,5.03
2019-01-17T20:03:34.922Z,6.83
2019-01-17T20:06:05.569Z,10.28
2019-01-17T20:08:35.333Z,5.45
2019-01-17T20:11:06.408Z,5.90
2019-01-17T20:13:38.964Z,6.37
2019-01-17T20:16:08.752Z,5.08
2019-01-17T20:18:38.234Z,10.93
2019-01-17T20:21:07.633Z,5.22
2019-01-17T20:23:37.598Z,4.62
2019-01-17T20:26:07.281Z,6.15
2019-01-17T20:28:36.899Z,4.45
2019-01-17T20:31:06.527Z,9.30
2019-01-17T20:33:36.019Z,3.77
2019-01-17T20:36:09.405Z,7.37
2019-01-17T20:38:39.696Z,3.15
2019-01-17T20:41:09.236Z,4.85
2019-01-17T20:43:38.931Z,7.80
2019-01-17T20:46:08.592Z,7.58
2019-01-17T20:48:38.159Z,3.27
2019-01-17T20:51:07.722Z,3.55
2019-01-17T20:53:37.617Z,5.67
2019-01-17T20:56:07.434Z,7.35
2019-01-17T20:58:42.289Z,5.10
2019-01-17T21:01:46.498Z,8.05
2019-01-17T21:04:16.036Z,8.53
2019-01-17T21:06:45.931Z,8.50
2019-01-17T21:09:15.801Z,8.93
2019-01-17T21:11:45.263Z,3.42
2019-01-17T21:14:14.851Z,5.00
2019-01-17T21:16:44.430Z,8.00
2019-01-17T21:19:14.047Z,8.50
2019-01-17T21:21:43.563Z,5.12
2019-01-17T21:24:13.137Z,3.65
2019-01-17T21:26:44.437Z,14.15
2019-01-17T21:29:14.190Z,8.85
2019-01-17T21:31:43.777Z,6.40
2019-01-17T21:34:13.259Z,4.87
2019-01-17T21:36:42.754Z,5.53
2019-01-17T21:39:12.304Z,7.37
2019-01-17T21:41:41.826Z,8.00
2019-01-17T21:44:11.323Z,3.40
2019-01-17T21:46:40.829Z,4.22
2019-01-17T21:49:10.331Z,3.00
2019-01-17T21:51:40.699Z,7.00
2019-01-17T21:54:10.254Z,6.20
2019-01-17T21:56:39.754Z,6.08
2019-01-17T21:59:09.364Z,4.85
2019-01-17T22:01:38.882Z,4.08
2019-01-17T22:04:10.089Z,5.65
2019-01-17T22:06:39.647Z,4.25
2019-01-17T22:09:11.207Z,4.12
2019-01-17T22:11:40.718Z,4.60
2019-01-17T22:14:10.338Z,4.28
2019-01-17T22:16:39.750Z,9.50
2019-01-17T22:19:10.186Z,9.00
2019-01-17T22:21:40.376Z,7.25
2019-01-17T22:24:10.000Z,6.12
2019-01-17T22:26:39.590Z,5.60
2019-01-17T22:29:09.103Z,5.33
2019-01-17T22:31:38.674Z,4.35
2019-01-17T22:34:08.163Z,6.85
2019-01-17T22:36:37.659Z,2.00
2019-01-17T22:39:07.902Z,4.92
2019-01-17T22:41:37.349Z,4.50
2019-01-17T22:44:07.247Z,2.87
2019-01-17T22:46:36.764Z,7.60
2019-01-17T22:49:06.360Z,4.53
2019-01-17T22:51:35.939Z,4.60
2019-01-17T22:54:05.680Z,2.25
2019-01-17T22:56:35.220Z,4.12
2019-01-17T22:59:09.228Z,2.62
2019-01-17T23:01:36.048Z,6.20
2019-01-17T23:04:06.826Z,2.87
2019-01-17T23:06:36.362Z,8.33
2019-01-17T23:09:08.746Z,6.42
2019-01-17T23:11:39.178Z,3.10
2019-01-17T23:14:08.659Z,8.08
2019-01-17T23:16:38.189Z,2.87
2019-01-17T23:19:07.634Z,3.55
2019-01-17T23:21:37.147Z,5.12
2019-01-17T23:24:06.588Z,5.67
2019-01-17T23:26:36.020Z,1.60
2019-01-17T23:29:05.714Z,6.25
2019-01-17T23:31:35.252Z,4.05
2019-01-17T23:34:04.811Z,3.85
2019-01-17T23:36:34.385Z,2.35
2019-01-17T23:39:06.810Z,5.00
2019-01-17T23:41:36.337Z,7.90
2019-01-17T23:44:05.841Z,2.47
2019-01-17T23:46:35.433Z,3.58
2019-01-17T23:49:05.182Z,3.35
2019-01-17T23:51:34.703Z,4.05
2019-01-17T23:54:04.340Z,2.98
2019-01-17T23:56:33.974Z,10.10
2019-01-17T23:59:03.489Z,3.05
